sensor_id;sensor_type;location;lat;lon;timestamp;pressure;altitude;pressure_sealevel;temperature;humidity
74090;BME280;62448;-26.094;27.994;2022-08-24T00:01:28;85626.50;;;11.79;13.01
74090;BME280;62448;-26.094;27.994;2022-08-24T00:03:54;85627.11;;;10.75;13.38
74090;BME280;62448;-26.094;27.994;2022-08-24T00:06:20;85622.49;;;11.61;13.45
74090;BME280;62448;-26.094;27.994;2022-08-24T00:08:46;85619.98;;;11.40;13.50
74090;BME280;62448;-26.094;27.994;2022-08-24T00:11:10;85620.81;;;11.18;13.61
74090;BME280;62448;-26.094;27.994;2022-08-24T00:13:36;85623.54;;;11.23;13.69
74090;BME280;62448;-26.094;27.994;2022-08-24T00:16:01;85620.81;;;11.37;13.34
74090;BME280;62448;-26.094;27.994;2022-08-24T00:18:27;85618.77;;;12.18;13.11
74090;BME280;62448;-26.094;27.994;2022-08-24T00:20:52;85616.18;;;11.67;12.92
74090;BME280;62448;-26.094;27.994;2022-08-24T00:23:17;85612.41;;;11.89;12.98
74090;BME280;62448;-26.094;27.994;2022-08-24T00:25:43;85615.69;;;11.92;12.98
74090;BME280;62448;-26.094;27.994;2022-08-24T00:28:08;85620.34;;;12.01;12.89
74090;BME280;62448;-26.094;27.994;2022-08-24T00:30:34;85617.41;;;12.23;12.83
74090;BME280;62448;-26.094;27.994;2022-08-24T00:33:00;85611.21;;;11.85;12.90
74090;BME280;62448;-26.094;27.994;2022-08-24T00:35:25;85610.14;;;11.98;12.85
74090;BME280;62448;-26.094;27.994;2022-08-24T00:37:51;85612.25;;;11.73;12.90
74090;BME280;62448;-26.094;27.994;2022-08-24T00:40:20;85612.89;;;11.68;12.87
74090;BME280;62448;-26.094;27.994;2022-08-24T00:42:41;85609.12;;;11.86;12.97
74090;BME280;62448;-26.094;27.994;2022-08-24T00:45:11;85607.37;;;12.27;12.85
74090;BME280;62448;-26.094;27.994;2022-08-24T00:47:38;85605.65;;;11.56;12.96
74090;BME280;62448;-26.094;27.994;2022-08-24T00:50:00;85608.28;;;12.19;12.83
74090;BME280;62448;-26.094;27.994;2022-08-24T00:52:26;85605.19;;;11.86;13.08
74090;BME280;62448;-26.094;27.994;2022-08-24T00:55:00;85598.00;;;11.60;13.46
74090;BME280;62448;-26.094;27.994;2022-08-24T00:57:17;85588.36;;;11.60;13.51
74090;BME280;62448;-26.094;27.994;2022-08-24T00:59:44;85590.85;;;11.27;13.68
74090;BME280;62448;-26.094;27.994;2022-08-24T01:02:07;85596.95;;;11.38;13.72
74090;BME280;62448;-26.094;27.994;2022-08-24T01:04:36;85602.40;;;10.95;13.86
74090;BME280;62448;-26.094;27.994;2022-08-24T01:06:56;85598.16;;;10.89;13.85
74090;BME280;62448;-26.094;27.994;2022-08-24T01:09:21;85593.84;;;10.84;13.75
74090;BME280;62448;-26.094;27.994;2022-08-24T01:11:46;85592.15;;;10.41;13.99
74090;BME280;62448;-26.094;27.994;2022-08-24T01:14:37;85594.23;;;11.29;13.99
74090;BME280;62448;-26.094;27.994;2022-08-24T01:16:47;85595.92;;;11.33;13.48
74090;BME280;62448;-26.094;27.994;2022-08-24T01:19:20;85600.09;;;12.10;13.10
74090;BME280;62448;-26.094;27.994;2022-08-24T01:21:45;85598.92;;;11.76;13.16
74090;BME280;62448;-26.094;27.994;2022-08-24T01:24:09;85596.58;;;11.35;13.14
74090;BME280;62448;-26.094;27.994;2022-08-24T01:26:33;85590.09;;;11.82;13.01
74090;BME280;62448;-26.094;27.994;2022-08-24T01:28:58;85588.57;;;11.50;13.11
74090;BME280;62448;-26.094;27.994;2022-08-24T01:31:20;85587.82;;;11.89;13.06
74090;BME280;62448;-26.094;27.994;2022-08-24T01:33:48;85587.91;;;11.36;13.20
74090;BME280;62448;-26.094;27.994;2022-08-24T01:36:17;85587.99;;;11.79;13.10
74090;BME280;62448;-26.094;27.994;2022-08-24T01:38:36;85586.46;;;11.31;13.13
74090;BME280;62448;-26.094;27.994;2022-08-24T01:41:03;85585.26;;;11.40;13.04
74090;BME280;62448;-26.094;27.994;2022-08-24T01:43:27;85583.69;;;11.69;13.25
74090;BME280;62448;-26.094;27.994;2022-08-24T01:45:53;85580.67;;;11.36;13.54
74090;BME280;62448;-26.094;27.994;2022-08-24T01:48:18;85581.04;;;11.00;13.77
74090;BME280;62448;-26.094;27.994;2022-08-24T01:50:43;85582.12;;;11.07;13.89
74090;BME280;62448;-26.094;27.994;2022-08-24T01:53:09;85584.67;;;11.10;13.89
74090;BME280;62448;-26.094;27.994;2022-08-24T01:55:35;85586.10;;;11.00;13.96
74090;BME280;62448;-26.094;27.994;2022-08-24T01:58:01;85589.30;;;11.32;13.93
74090;BME280;62448;-26.094;27.994;2022-08-24T02:00:27;85589.85;;;10.71;14.08
74090;BME280;62448;-26.094;27.994;2022-08-24T02:02:52;85586.78;;;10.87;14.15
74090;BME280;62448;-26.094;27.994;2022-08-24T02:05:17;85584.67;;;11.01;14.07
74090;BME280;62448;-26.094;27.994;2022-08-24T02:07:42;85584.96;;;11.08;14.14
74090;BME280;62448;-26.094;27.994;2022-08-24T02:10:11;85586.39;;;10.95;14.08
74090;BME280;62448;-26.094;27.994;2022-08-24T02:12:33;85590.32;;;10.62;14.11
74090;BME280;62448;-26.094;27.994;2022-08-24T02:14:58;85592.27;;;10.06;14.10
74090;BME280;62448;-26.094;27.994;2022-08-24T02:17:23;85589.99;;;10.55;13.80
74090;BME280;62448;-26.094;27.994;2022-08-24T02:19:48;85585.18;;;11.08;13.56
74090;BME280;62448;-26.094;27.994;2022-08-24T02:22:14;85584.96;;;11.19;13.51
74090;BME280;62448;-26.094;27.994;2022-08-24T02:24:40;85585.75;;;11.23;13.34
74090;BME280;62448;-26.094;27.994;2022-08-24T02:27:05;85586.95;;;11.13;13.28
74090;BME280;62448;-26.094;27.994;2022-08-24T02:29:30;85588.97;;;11.28;13.21
74090;BME280;62448;-26.094;27.994;2022-08-24T02:31:56;85589.25;;;11.21;13.26
74090;BME280;62448;-26.094;27.994;2022-08-24T02:34:21;85584.80;;;10.95;13.61
74090;BME280;62448;-26.094;27.994;2022-08-24T02:36:47;85585.80;;;11.11;13.81
74090;BME280;62448;-26.094;27.994;2022-08-24T02:39:11;85583.24;;;10.86;13.93
74090;BME280;62448;-26.094;27.994;2022-08-24T02:41:37;85581.94;;;10.67;14.02
74090;BME280;62448;-26.094;27.994;2022-08-24T02:44:04;85585.22;;;10.58;14.05
74090;BME280;62448;-26.094;27.994;2022-08-24T02:46:29;85586.61;;;10.54;13.98
74090;BME280;62448;-26.094;27.994;2022-08-24T02:48:54;85582.07;;;10.38;13.95
74090;BME280;62448;-26.094;27.994;2022-08-24T02:51:22;85579.46;;;10.67;14.08
74090;BME280;62448;-26.094;27.994;2022-08-24T02:53:45;85582.28;;;10.84;14.05
74090;BME280;62448;-26.094;27.994;2022-08-24T02:56:10;85586.72;;;10.49;14.06
74090;BME280;62448;-26.094;27.994;2022-08-24T02:58:35;85588.02;;;10.63;14.02
74090;BME280;62448;-26.094;27.994;2022-08-24T03:01:01;85589.93;;;10.31;14.21
74090;BME280;62448;-26.094;27.994;2022-08-24T03:03:26;85592.44;;;10.49;14.18
74090;BME280;62448;-26.094;27.994;2022-08-24T03:05:52;85593.11;;;9.80;14.07
74090;BME280;62448;-26.094;27.994;2022-08-24T03:08:17;85592.84;;;10.46;14.14
74090;BME280;62448;-26.094;27.994;2022-08-24T03:10:42;85590.99;;;10.68;14.08
74090;BME280;62448;-26.094;27.994;2022-08-24T03:13:07;85587.35;;;10.61;14.15
74090;BME280;62448;-26.094;27.994;2022-08-24T03:15:33;85585.77;;;9.99;13.98
74090;BME280;62448;-26.094;27.994;2022-08-24T03:17:57;85581.30;;;11.28;13.60
74090;BME280;62448;-26.094;27.994;2022-08-24T03:20:23;85583.42;;;10.55;13.49
74090;BME280;62448;-26.094;27.994;2022-08-24T03:22:48;85585.49;;;11.10;13.43
74090;BME280;62448;-26.094;27.994;2022-08-24T03:25:15;85587.08;;;11.40;13.35
74090;BME280;62448;-26.094;27.994;2022-08-24T03:27:39;85592.33;;;11.21;13.65
74090;BME280;62448;-26.094;27.994;2022-08-24T03:30:05;85594.72;;;10.81;13.91
74090;BME280;62448;-26.094;27.994;2022-08-24T03:32:29;85593.26;;;10.50;14.05
74090;BME280;62448;-26.094;27.994;2022-08-24T03:34:55;85591.41;;;10.62;14.05
74090;BME280;62448;-26.094;27.994;2022-08-24T03:37:20;85598.04;;;10.70;14.13
74090;BME280;62448;-26.094;27.994;2022-08-24T03:39:45;85599.92;;;10.06;14.25
74090;BME280;62448;-26.094;27.994;2022-08-24T03:42:11;85601.30;;;10.76;14.40
74090;BME280;62448;-26.094;27.994;2022-08-24T03:44:36;85603.69;;;9.49;15.12
74090;BME280;62448;-26.094;27.994;2022-08-24T03:47:02;85607.68;;;10.41;14.85
74090;BME280;62448;-26.094;27.994;2022-08-24T03:49:28;85612.72;;;9.67;15.06
74090;BME280;62448;-26.094;27.994;2022-08-24T03:51:53;85611.75;;;10.00;15.33
74090;BME280;62448;-26.094;27.994;2022-08-24T03:54:18;85616.06;;;10.22;15.34
74090;BME280;62448;-26.094;27.994;2022-08-24T03:56:44;85613.33;;;10.01;15.57
74090;BME280;62448;-26.094;27.994;2022-08-24T03:59:09;85616.09;;;9.40;15.75
74090;BME280;62448;-26.094;27.994;2022-08-24T04:01:34;85614.60;;;9.92;15.47
74090;BME280;62448;-26.094;27.994;2022-08-24T04:04:00;85614.90;;;10.09;15.51
74090;BME280;62448;-26.094;27.994;2022-08-24T04:06:26;85622.11;;;10.08;15.37
74090;BME280;62448;-26.094;27.994;2022-08-24T04:08:52;85621.81;;;10.32;15.34
74090;BME280;62448;-26.094;27.994;2022-08-24T04:11:19;85626.01;;;10.18;15.25
74090;BME280;62448;-26.094;27.994;2022-08-24T04:13:42;85628.99;;;10.08;15.18
74090;BME280;62448;-26.094;27.994;2022-08-24T04:16:10;85629.78;;;10.06;15.00
74090;BME280;62448;-26.094;27.994;2022-08-24T04:18:33;85632.93;;;10.64;14.58
74090;BME280;62448;-26.094;27.994;2022-08-24T04:20:58;85633.50;;;10.66;14.68
74090;BME280;62448;-26.094;27.994;2022-08-24T04:23:23;85635.78;;;10.49;14.69
74090;BME280;62448;-26.094;27.994;2022-08-24T04:25:49;85637.01;;;10.84;14.76
74090;BME280;62448;-26.094;27.994;2022-08-24T04:28:17;85633.61;;;10.31;14.92
74090;BME280;62448;-26.094;27.994;2022-08-24T04:30:41;85640.34;;;9.62;15.28
74090;BME280;62448;-26.094;27.994;2022-08-24T04:33:05;85642.10;;;10.35;15.00
74090;BME280;62448;-26.094;27.994;2022-08-24T04:35:31;85647.56;;;10.32;15.02
74090;BME280;62448;-26.094;27.994;2022-08-24T04:37:56;85650.17;;;9.97;14.92
74090;BME280;62448;-26.094;27.994;2022-08-24T04:40:22;85659.82;;;10.33;14.94
74090;BME280;62448;-26.094;27.994;2022-08-24T04:42:47;85664.94;;;10.30;15.03
74090;BME280;62448;-26.094;27.994;2022-08-24T04:45:12;85669.56;;;10.15;14.93
74090;BME280;62448;-26.094;27.994;2022-08-24T04:47:38;85674.36;;;10.21;14.87
74090;BME280;62448;-26.094;27.994;2022-08-24T04:50:04;85672.65;;;9.88;14.86
74090;BME280;62448;-26.094;27.994;2022-08-24T04:52:29;85672.20;;;10.51;14.68
74090;BME280;62448;-26.094;27.994;2022-08-24T04:54:55;85675.47;;;10.00;14.68
74090;BME280;62448;-26.094;27.994;2022-08-24T04:57:21;85680.80;;;10.08;14.93
74090;BME280;62448;-26.094;27.994;2022-08-24T04:59:46;85678.43;;;10.05;14.81
74090;BME280;62448;-26.094;27.994;2022-08-24T05:02:12;85681.39;;;10.51;14.65
74090;BME280;62448;-26.094;27.994;2022-08-24T05:04:37;85685.92;;;10.21;14.72
74090;BME280;62448;-26.094;27.994;2022-08-24T05:07:03;85693.67;;;10.11;14.81
74090;BME280;62448;-26.094;27.994;2022-08-24T05:09:28;85691.11;;;10.08;14.67
74090;BME280;62448;-26.094;27.994;2022-08-24T05:11:54;85696.99;;;10.22;14.63
74090;BME280;62448;-26.094;27.994;2022-08-24T05:14:19;85696.64;;;10.26;14.49
74090;BME280;62448;-26.094;27.994;2022-08-24T05:16:44;85702.08;;;10.27;14.23
74090;BME280;62448;-26.094;27.994;2022-08-24T05:19:10;85702.80;;;10.82;13.91
74090;BME280;62448;-26.094;27.994;2022-08-24T05:21:36;85709.04;;;10.95;13.83
74090;BME280;62448;-26.094;27.994;2022-08-24T05:24:02;85717.78;;;10.63;13.77
74090;BME280;62448;-26.094;27.994;2022-08-24T05:26:27;85721.21;;;10.94;13.71
74090;BME280;62448;-26.094;27.994;2022-08-24T05:28:54;85723.33;;;10.65;13.67
74090;BME280;62448;-26.094;27.994;2022-08-24T05:31:19;85725.71;;;10.70;13.68
74090;BME280;62448;-26.094;27.994;2022-08-24T05:33:44;85728.75;;;10.96;13.92
74090;BME280;62448;-26.094;27.994;2022-08-24T05:36:18;85729.72;;;10.91;13.87
74090;BME280;62448;-26.094;27.994;2022-08-24T05:38:33;85730.93;;;10.69;13.96
74090;BME280;62448;-26.094;27.994;2022-08-24T05:41:02;85732.73;;;10.52;14.07
74090;BME280;62448;-26.094;27.994;2022-08-24T05:43:24;85735.54;;;10.53;14.12
74090;BME280;62448;-26.094;27.994;2022-08-24T05:45:49;85732.41;;;10.62;14.10
74090;BME280;62448;-26.094;27.994;2022-08-24T05:48:15;85731.98;;;10.88;14.11
74090;BME280;62448;-26.094;27.994;2022-08-24T05:50:40;85734.48;;;10.61;14.21
74090;BME280;62448;-26.094;27.994;2022-08-24T05:53:05;85736.20;;;10.68;14.32
74090;BME280;62448;-26.094;27.994;2022-08-24T05:55:31;85735.88;;;10.48;14.39
74090;BME280;62448;-26.094;27.994;2022-08-24T05:57:56;85736.11;;;10.92;14.16
74090;BME280;62448;-26.094;27.994;2022-08-24T06:00:22;85741.01;;;10.67;14.24
74090;BME280;62448;-26.094;27.994;2022-08-24T06:02:47;85741.90;;;10.13;14.34
74090;BME280;62448;-26.094;27.994;2022-08-24T06:05:13;85744.56;;;10.01;14.56
74090;BME280;62448;-26.094;27.994;2022-08-24T06:07:38;85742.85;;;10.32;14.60
74090;BME280;62448;-26.094;27.994;2022-08-24T06:10:05;85745.17;;;10.21;15.10
74090;BME280;62448;-26.094;27.994;2022-08-24T06:12:30;85747.51;;;9.52;15.45
74090;BME280;62448;-26.094;27.994;2022-08-24T06:14:55;85749.53;;;9.82;15.52
74090;BME280;62448;-26.094;27.994;2022-08-24T06:17:20;85748.81;;;9.84;15.40
74090;BME280;62448;-26.094;27.994;2022-08-24T06:19:45;85749.33;;;10.37;15.08
74090;BME280;62448;-26.094;27.994;2022-08-24T06:22:11;85750.10;;;9.73;15.12
74090;BME280;62448;-26.094;27.994;2022-08-24T06:24:36;85750.25;;;9.71;15.24
74090;BME280;62448;-26.094;27.994;2022-08-24T06:27:01;85748.74;;;9.84;15.19
74090;BME280;62448;-26.094;27.994;2022-08-24T06:29:27;85745.68;;;10.00;15.24
74090;BME280;62448;-26.094;27.994;2022-08-24T06:31:52;85745.46;;;10.01;15.21
74090;BME280;62448;-26.094;27.994;2022-08-24T06:34:18;85743.91;;;10.14;15.24
74090;BME280;62448;-26.094;27.994;2022-08-24T06:36:44;85745.03;;;10.34;15.16
74090;BME280;62448;-26.094;27.994;2022-08-24T06:39:09;85746.85;;;9.48;15.49
74090;BME280;62448;-26.094;27.994;2022-08-24T06:41:34;85744.13;;;10.25;15.28
74090;BME280;62448;-26.094;27.994;2022-08-24T06:43:59;85742.65;;;10.07;15.33
74090;BME280;62448;-26.094;27.994;2022-08-24T06:46:24;85740.96;;;10.34;15.17
74090;BME280;62448;-26.094;27.994;2022-08-24T06:48:50;85744.56;;;10.33;15.13
74090;BME280;62448;-26.094;27.994;2022-08-24T06:51:17;85747.84;;;10.19;15.28
74090;BME280;62448;-26.094;27.994;2022-08-24T06:53:40;85746.90;;;10.52;15.15
74090;BME280;62448;-26.094;27.994;2022-08-24T06:56:10;85750.22;;;9.44;15.37
74090;BME280;62448;-26.094;27.994;2022-08-24T06:58:31;85751.32;;;9.78;15.39
74090;BME280;62448;-26.094;27.994;2022-08-24T07:00:56;85751.26;;;9.80;15.36
74090;BME280;62448;-26.094;27.994;2022-08-24T07:03:22;85756.46;;;9.91;15.72
74090;BME280;62448;-26.094;27.994;2022-08-24T07:05:50;85755.33;;;9.84;15.89
74090;BME280;62448;-26.094;27.994;2022-08-24T07:08:12;85753.49;;;9.16;16.31
74090;BME280;62448;-26.094;27.994;2022-08-24T07:10:38;85754.66;;;9.57;16.16
74090;BME280;62448;-26.094;27.994;2022-08-24T07:13:04;85753.40;;;9.61;16.39
74090;BME280;62448;-26.094;27.994;2022-08-24T07:15:29;85755.11;;;9.32;16.45
74090;BME280;62448;-26.094;27.994;2022-08-24T07:17:54;85755.89;;;9.00;16.24
74090;BME280;62448;-26.094;27.994;2022-08-24T07:20:19;85757.53;;;9.60;15.76
74090;BME280;62448;-26.094;27.994;2022-08-24T07:22:45;85759.27;;;9.52;15.68
74090;BME280;62448;-26.094;27.994;2022-08-24T07:25:11;85762.95;;;9.50;15.76
74090;BME280;62448;-26.094;27.994;2022-08-24T07:27:36;85760.26;;;9.88;15.71
74090;BME280;62448;-26.094;27.994;2022-08-24T07:30:01;85760.38;;;10.08;15.47
74090;BME280;62448;-26.094;27.994;2022-08-24T07:32:26;85760.79;;;9.80;15.51
74090;BME280;62448;-26.094;27.994;2022-08-24T07:34:52;85759.63;;;10.27;15.35
74090;BME280;62448;-26.094;27.994;2022-08-24T07:37:17;85760.79;;;9.78;15.48
74090;BME280;62448;-26.094;27.994;2022-08-24T07:39:42;85762.22;;;10.19;15.31
74090;BME280;62448;-26.094;27.994;2022-08-24T07:42:08;85761.69;;;10.46;15.16
74090;BME280;62448;-26.094;27.994;2022-08-24T07:44:33;85768.45;;;9.62;15.51
74090;BME280;62448;-26.094;27.994;2022-08-24T07:46:58;85766.11;;;9.94;15.42
74090;BME280;62448;-26.094;27.994;2022-08-24T07:49:24;85764.01;;;10.35;15.24
74090;BME280;62448;-26.094;27.994;2022-08-24T07:51:49;85764.15;;;9.78;15.29
74090;BME280;62448;-26.094;27.994;2022-08-24T07:54:17;85765.06;;;10.19;15.03
74090;BME280;62448;-26.094;27.994;2022-08-24T07:56:41;85763.44;;;10.13;15.25
74090;BME280;62448;-26.094;27.994;2022-08-24T07:59:06;85765.35;;;9.81;15.40
74090;BME280;62448;-26.094;27.994;2022-08-24T08:01:32;85765.63;;;9.71;15.42
74090;BME280;62448;-26.094;27.994;2022-08-24T08:03:57;85761.71;;;9.77;15.56
74090;BME280;62448;-26.094;27.994;2022-08-24T08:06:22;85760.68;;;9.80;15.58
74090;BME280;62448;-26.094;27.994;2022-08-24T08:08:48;85757.88;;;9.77;15.58
74090;BME280;62448;-26.094;27.994;2022-08-24T08:11:14;85757.31;;;9.68;15.67
74090;BME280;62448;-26.094;27.994;2022-08-24T08:13:40;85756.33;;;9.71;15.69
74090;BME280;62448;-26.094;27.994;2022-08-24T08:16:21;85751.49;;;10.77;15.75
74090;BME280;62448;-26.094;27.994;2022-08-24T08:18:47;85750.33;;;9.78;15.75
74090;BME280;62448;-26.094;27.994;2022-08-24T08:21:12;85744.90;;;9.87;15.74
74090;BME280;62448;-26.094;27.994;2022-08-24T08:23:37;85743.90;;;9.85;15.81
74090;BME280;62448;-26.094;27.994;2022-08-24T08:26:02;85739.72;;;9.86;15.93
74090;BME280;62448;-26.094;27.994;2022-08-24T08:28:28;85736.59;;;10.06;15.71
74090;BME280;62448;-26.094;27.994;2022-08-24T08:30:53;85737.44;;;9.93;15.79
74090;BME280;62448;-26.094;27.994;2022-08-24T08:33:18;85735.21;;;10.29;15.60
74090;BME280;62448;-26.094;27.994;2022-08-24T08:35:45;85728.46;;;10.08;15.70
74090;BME280;62448;-26.094;27.994;2022-08-24T08:38:10;85730.35;;;10.01;15.54
74090;BME280;62448;-26.094;27.994;2022-08-24T08:40:49;85725.99;;;10.20;15.53
74090;BME280;62448;-26.094;27.994;2022-08-24T08:43:05;85720.06;;;10.16;15.64
74090;BME280;62448;-26.094;27.994;2022-08-24T08:45:32;85717.68;;;9.92;15.60
74090;BME280;62448;-26.094;27.994;2022-08-24T08:50:06;85705.43;;;10.08;15.69
74090;BME280;62448;-26.094;27.994;2022-08-24T08:52:45;85708.26;;;10.06;15.83
74090;BME280;62448;-26.094;27.994;2022-08-24T08:55:03;85703.20;;;10.37;15.93
74090;BME280;62448;-26.094;27.994;2022-08-24T08:57:32;85700.51;;;9.92;16.04
74090;BME280;62448;-26.094;27.994;2022-08-24T09:00:03;85703.03;;;9.72;16.29
74090;BME280;62448;-26.094;27.994;2022-08-24T09:02:22;85695.95;;;9.78;16.20
74090;BME280;62448;-26.094;27.994;2022-08-24T09:04:51;85693.11;;;9.57;16.34
74090;BME280;62448;-26.094;27.994;2022-08-24T09:07:10;85688.77;;;9.86;16.24
74090;BME280;62448;-26.094;27.994;2022-08-24T09:09:49;85688.07;;;9.92;16.32
74090;BME280;62448;-26.094;27.994;2022-08-24T09:12:02;85683.60;;;9.46;16.17
74090;BME280;62448;-26.094;27.994;2022-08-24T09:14:34;85681.64;;;9.50;16.25
74090;BME280;62448;-26.094;27.994;2022-08-24T09:16:56;85677.63;;;7.97;16.06
74090;BME280;62448;-26.094;27.994;2022-08-24T09:19:24;85670.25;;;9.79;15.59
74090;BME280;62448;-26.094;27.994;2022-08-24T09:21:44;85671.75;;;10.30;15.34
74090;BME280;62448;-26.094;27.994;2022-08-24T09:24:22;85660.81;;;10.36;15.29
74090;BME280;62448;-26.094;27.994;2022-08-24T09:26:27;85658.27;;;10.47;15.08
74090;BME280;62448;-26.094;27.994;2022-08-24T09:28:57;85655.67;;;10.16;15.13
74090;BME280;62448;-26.094;27.994;2022-08-24T09:31:53;85650.49;;;10.77;14.97
74090;BME280;62448;-26.094;27.994;2022-08-24T09:34:30;85641.32;;;10.73;14.93
74090;BME280;62448;-26.094;27.994;2022-08-24T09:36:51;85638.94;;;10.34;14.84
74090;BME280;62448;-26.094;27.994;2022-08-24T09:39:08;85635.01;;;10.70;14.77
74090;BME280;62448;-26.094;27.994;2022-08-24T09:41:53;85625.05;;;10.54;14.67
74090;BME280;62448;-26.094;27.994;2022-08-24T09:44:26;85619.82;;;10.36;14.73
74090;BME280;62448;-26.094;27.994;2022-08-24T09:46:39;85616.06;;;10.76;14.77
74090;BME280;62448;-26.094;27.994;2022-08-24T09:49:41;85611.44;;;10.65;14.98
74090;BME280;62448;-26.094;27.994;2022-08-24T09:51:28;85603.72;;;10.07;15.25
74090;BME280;62448;-26.094;27.994;2022-08-24T09:54:14;85599.04;;;9.87;15.36
74090;BME280;62448;-26.094;27.994;2022-08-24T09:56:13;85593.75;;;10.37;15.20
74090;BME280;62448;-26.094;27.994;2022-08-24T09:58:40;85591.87;;;9.87;15.53
74090;BME280;62448;-26.094;27.994;2022-08-24T10:01:00;85586.87;;;10.09;15.61
74090;BME280;62448;-26.094;27.994;2022-08-24T10:03:25;85582.89;;;10.29;15.77
74090;BME280;62448;-26.094;27.994;2022-08-24T10:05:59;85575.12;;;10.60;16.02
74090;BME280;62448;-26.094;27.994;2022-08-24T10:08:16;85571.45;;;10.46;15.93
74090;BME280;62448;-26.094;27.994;2022-08-24T10:10:43;85569.76;;;10.19;15.91
74090;BME280;62448;-26.094;27.994;2022-08-24T10:13:12;85561.85;;;10.46;15.67
74090;BME280;62448;-26.094;27.994;2022-08-24T10:15:29;85558.13;;;10.14;15.71
74090;BME280;62448;-26.094;27.994;2022-08-24T10:18:13;85550.04;;;10.21;15.42
74090;BME280;62448;-26.094;27.994;2022-08-24T10:20:21;85543.98;;;10.34;15.01
74090;BME280;62448;-26.094;27.994;2022-08-24T10:22:59;85543.62;;;10.30;14.88
74090;BME280;62448;-26.094;27.994;2022-08-24T10:25:19;85536.49;;;10.77;14.69
74090;BME280;62448;-26.094;27.994;2022-08-24T10:27:44;85532.02;;;11.24;14.49
74090;BME280;62448;-26.094;27.994;2022-08-24T10:30:15;85530.66;;;11.10;14.43
74090;BME280;62448;-26.094;27.994;2022-08-24T10:32:40;85530.09;;;11.15;14.31
74090;BME280;62448;-26.094;27.994;2022-08-24T10:34:59;85524.02;;;11.39;14.22
74090;BME280;62448;-26.094;27.994;2022-08-24T10:37:30;85519.33;;;11.06;14.23
74090;BME280;62448;-26.094;27.994;2022-08-24T10:40:03;85517.37;;;11.52;14.09
74090;BME280;62448;-26.094;27.994;2022-08-24T10:42:23;85513.53;;;11.21;14.06
74090;BME280;62448;-26.094;27.994;2022-08-24T10:44:42;85511.98;;;11.40;14.07
74090;BME280;62448;-26.094;27.994;2022-08-24T10:47:00;85504.30;;;11.08;14.29
74090;BME280;62448;-26.094;27.994;2022-08-24T10:50:40;85502.35;;;10.59;14.58
74090;BME280;62448;-26.094;27.994;2022-08-24T10:52:06;85498.53;;;9.92;14.68
74090;BME280;62448;-26.094;27.994;2022-08-24T10:54:13;85493.39;;;11.25;14.73
74090;BME280;62448;-26.094;27.994;2022-08-24T10:56:42;85490.84;;;11.00;14.99
74090;BME280;62448;-26.094;27.994;2022-08-24T10:59:16;85486.99;;;10.97;15.07
74090;BME280;62448;-26.094;27.994;2022-08-24T11:01:32;85480.89;;;10.75;15.13
74090;BME280;62448;-26.094;27.994;2022-08-24T11:04:00;85481.27;;;10.68;15.19
74090;BME280;62448;-26.094;27.994;2022-08-24T11:06:24;85475.31;;;11.27;15.13
74090;BME280;62448;-26.094;27.994;2022-08-24T11:08:59;85474.52;;;11.20;15.16
74090;BME280;62448;-26.094;27.994;2022-08-24T11:11:20;85470.92;;;11.11;15.24
74090;BME280;62448;-26.094;27.994;2022-08-24T11:13:50;85463.60;;;11.19;15.48
74090;BME280;62448;-26.094;27.994;2022-08-24T11:16:05;85466.01;;;11.50;15.35
74090;BME280;62448;-26.094;27.994;2022-08-24T11:18:47;85461.02;;;11.35;15.14
74090;BME280;62448;-26.094;27.994;2022-08-24T11:20:55;85460.96;;;11.60;14.89
74090;BME280;62448;-26.094;27.994;2022-08-24T11:23:21;85455.56;;;11.70;14.79
74090;BME280;62448;-26.094;27.994;2022-08-24T11:25:54;85453.08;;;11.96;14.73
74090;BME280;62448;-26.094;27.994;2022-08-24T11:28:18;85449.41;;;11.81;14.76
74090;BME280;62448;-26.094;27.994;2022-08-24T11:30:39;85444.21;;;11.82;14.60
74090;BME280;62448;-26.094;27.994;2022-08-24T11:33:03;85438.00;;;12.07;14.69
74090;BME280;62448;-26.094;27.994;2022-08-24T11:35:37;85431.75;;;12.20;14.56
74090;BME280;62448;-26.094;27.994;2022-08-24T11:37:56;85434.65;;;11.78;14.57
74090;BME280;62448;-26.094;27.994;2022-08-24T11:40:22;85434.83;;;12.18;14.47
74090;BME280;62448;-26.094;27.994;2022-08-24T11:42:52;85431.42;;;12.23;14.38
74090;BME280;62448;-26.094;27.994;2022-08-24T11:45:14;85419.54;;;12.39;14.63
74090;BME280;62448;-26.094;27.994;2022-08-24T11:47:44;85415.78;;;12.15;14.96
74090;BME280;62448;-26.094;27.994;2022-08-24T11:50:10;85418.60;;;12.01;14.78
74090;BME280;62448;-26.094;27.994;2022-08-24T11:52:37;85408.78;;;12.01;14.91
74090;BME280;62448;-26.094;27.994;2022-08-24T11:55:00;85408.97;;;11.96;14.83
74090;BME280;62448;-26.094;27.994;2022-08-24T11:57:24;85410.77;;;11.77;14.74
74090;BME280;62448;-26.094;27.994;2022-08-24T11:59:48;85406.99;;;12.02;14.78
74090;BME280;62448;-26.094;27.994;2022-08-24T12:02:24;85399.54;;;11.78;14.96
74090;BME280;62448;-26.094;27.994;2022-08-24T12:04:48;85396.60;;;11.86;14.99
74090;BME280;62448;-26.094;27.994;2022-08-24T12:07:11;85394.79;;;11.87;14.95
74090;BME280;62448;-26.094;27.994;2022-08-24T12:09:43;85392.01;;;11.79;15.06
74090;BME280;62448;-26.094;27.994;2022-08-24T12:11:57;85384.66;;;12.09;15.04
74090;BME280;62448;-26.094;27.994;2022-08-24T12:14:21;85384.32;;;12.28;15.06
74090;BME280;62448;-26.094;27.994;2022-08-24T12:16:47;85380.59;;;11.97;15.02
74090;BME280;62448;-26.094;27.994;2022-08-24T12:19:13;85376.55;;;11.52;14.80
74090;BME280;62448;-26.094;27.994;2022-08-24T12:21:37;85368.55;;;12.46;14.59
74090;BME280;62448;-26.094;27.994;2022-08-24T12:24:00;85362.77;;;12.49;14.49
74090;BME280;62448;-26.094;27.994;2022-08-24T12:26:27;85355.58;;;12.51;14.41
74090;BME280;62448;-26.094;27.994;2022-08-24T12:28:54;85351.45;;;12.72;14.47
74090;BME280;62448;-26.094;27.994;2022-08-24T12:31:22;85351.02;;;12.81;14.35
74090;BME280;62448;-26.094;27.994;2022-08-24T12:33:44;85352.85;;;12.25;14.22
74090;BME280;62448;-26.094;27.994;2022-08-24T12:36:14;85347.88;;;13.23;13.61